createdAt,value
2019-01-25T00:00:11.461Z,52.70
2019-01-25T00:01:02.221Z,53.70
2019-01-25T00:01:55.940Z,51.92
2019-01-25T00:02:45.895Z,53.75
2019-01-25T00:03:32.538Z,54.10
2019-01-25T00:04:18.739Z,52.62
2019-01-25T00:05:05.892Z,55.15
2019-01-25T00:05:51.970Z,52.40
2019-01-25T00:06:38.507Z,52.45
2019-01-25T00:07:26.004Z,54.55
2019-01-25T00:08:12.209Z,54.15
2019-01-25T00:08:58.101Z,53.83
2019-01-25T00:09:43.958Z,55.80
2019-01-25T00:10:29.898Z,52.90
2019-01-25T00:11:17.207Z,54.65
2019-01-25T00:12:03.881Z,52.83
2019-01-25T00:12:50.041Z,55.58
2019-01-25T00:13:36.604Z,51.83
2019-01-25T00:14:22.609Z,52.55
2019-01-25T00:15:09.349Z,52.95
2019-01-25T00:15:55.786Z,51.95
2019-01-25T00:16:44.314Z,54.65
2019-01-25T00:17:30.333Z,52.80
2019-01-25T00:18:16.799Z,52.25
2019-01-25T00:19:03.872Z,53.55
2019-01-25T00:19:50.456Z,52.70
2019-01-25T00:20:36.857Z,53.90
2019-01-25T00:21:23.342Z,53.00
2019-01-25T00:22:09.451Z,53.30
2019-01-25T00:22:56.726Z,51.75
2019-01-25T00:23:43.227Z,52.03
2019-01-25T00:24:29.571Z,51.48
2019-01-25T00:25:16.227Z,53.73
2019-01-25T00:26:02.976Z,52.43
2019-01-25T00:26:49.269Z,53.23
2019-01-25T00:27:35.738Z,51.83
2019-01-25T00:28:22.257Z,53.45
2019-01-25T00:29:14.915Z,51.60
2019-01-25T00:30:01.450Z,51.15
2019-01-25T00:30:47.755Z,51.75
2019-01-25T00:31:36.234Z,52.27
2019-01-25T00:32:22.887Z,49.53
2019-01-25T00:33:10.520Z,52.95
2019-01-25T00:33:58.112Z,51.58
2019-01-25T00:34:45.449Z,53.40
2019-01-25T00:35:31.899Z,50.30
2019-01-25T00:36:18.302Z,52.45
2019-01-25T00:37:04.871Z,52.98
2019-01-25T00:37:51.111Z,52.88
2019-01-25T00:38:37.190Z,50.83
2019-01-25T00:39:23.238Z,53.45
2019-01-25T00:40:11.235Z,51.58
2019-01-25T00:40:57.270Z,52.55
2019-01-25T00:41:45.238Z,50.40
2019-01-25T00:42:31.267Z,50.92
2019-01-25T00:43:17.318Z,49.85
2019-01-25T00:44:03.599Z,50.48
2019-01-25T00:44:49.820Z,53.10
2019-01-25T00:45:36.170Z,49.93
2019-01-25T00:46:22.511Z,51.53
2019-01-25T00:47:09.145Z,50.80
2019-01-25T00:47:55.326Z,51.95
2019-01-25T00:48:41.577Z,52.40
2019-01-25T00:49:28.728Z,49.83
2019-01-25T00:50:17.336Z,51.50
2019-01-25T00:51:03.849Z,50.03
2019-01-25T00:51:51.019Z,50.75
2019-01-25T00:52:38.078Z,50.67
2019-01-25T00:53:26.174Z,51.83
2019-01-25T00:54:12.209Z,51.20
2019-01-25T00:54:58.315Z,54.75
2019-01-25T00:55:44.982Z,53.23
2019-01-25T00:56:31.620Z,52.50
2019-01-25T00:57:17.660Z,53.28
2019-01-25T00:58:04.720Z,52.78
2019-01-25T00:58:51.731Z,54.50
2019-01-25T00:59:38.186Z,52.73
2019-01-25T01:00:36.878Z,51.75
2019-01-25T01:01:37.357Z,51.42
2019-01-25T01:02:34.138Z,50.98
2019-01-25T01:03:31.022Z,51.02
2019-01-25T01:04:31.300Z,51.98
2019-01-25T01:05:27.692Z,51.48
2019-01-25T01:06:26.958Z,51.65
2019-01-25T01:07:24.303Z,49.53
2019-01-25T01:08:22.106Z,49.35
2019-01-25T01:09:19.404Z,51.68
2019-01-25T01:10:15.665Z,50.33
2019-01-25T01:11:08.509Z,49.88
2019-01-25T01:12:02.816Z,52.10
2019-01-25T01:12:59.098Z,51.30
2019-01-25T01:13:47.603Z,50.65
2019-01-25T01:14:33.366Z,52.27
2019-01-25T01:15:20.951Z,54.25
2019-01-25T01:16:08.843Z,54.85
2019-01-25T01:16:54.960Z,51.37
2019-01-25T01:17:41.371Z,54.15
2019-01-25T01:18:27.276Z,51.10
2019-01-25T01:19:14.287Z,52.83
2019-01-25T01:20:00.768Z,54.33
2019-01-25T01:20:47.589Z,52.13
2019-01-25T01:21:35.099Z,53.25
2019-01-25T01:22:21.431Z,52.23
2019-01-25T01:23:07.358Z,52.30
2019-01-25T01:23:53.304Z,53.63
2019-01-25T01:24:39.411Z,52.55
2019-01-25T01:25:25.938Z,53.05
2019-01-25T01:26:12.321Z,52.93
2019-01-25T01:26:58.891Z,54.15
2019-01-25T01:27:45.076Z,55.20
2019-01-25T01:28:31.468Z,53.00
2019-01-25T01:29:18.766Z,54.65
2019-01-25T01:30:06.726Z,52.80
2019-01-25T01:30:53.310Z,53.90
2019-01-25T01:31:41.066Z,53.30
2019-01-25T01:32:28.310Z,53.65
2019-01-25T01:33:15.443Z,52.98
2019-01-25T01:34:01.924Z,53.55
2019-01-25T01:34:48.155Z,52.05
2019-01-25T01:35:34.267Z,50.83
2019-01-25T01:36:20.339Z,52.53
2019-01-25T01:37:06.285Z,52.15
2019-01-25T01:37:52.259Z,50.15
2019-01-25T01:38:38.720Z,54.48
2019-01-25T01:39:24.770Z,53.45
2019-01-25T01:40:21.493Z,54.50
2019-01-25T01:41:02.915Z,53.35
2019-01-25T01:41:49.497Z,51.13
2019-01-25T01:42:35.514Z,55.73
2019-01-25T01:43:22.087Z,50.90
2019-01-25T01:44:08.567Z,50.12
2019-01-25T01:44:55.570Z,51.33
2019-01-25T01:45:41.801Z,53.08
2019-01-25T01:46:28.233Z,51.15
2019-01-25T01:47:14.212Z,51.10
2019-01-25T01:48:00.420Z,52.83
2019-01-25T01:48:46.585Z,51.90
2019-01-25T01:49:33.085Z,52.03
2019-01-25T01:50:19.587Z,51.15
2019-01-25T01:51:07.173Z,51.92
2019-01-25T01:51:56.027Z,53.13
2019-01-25T01:52:44.090Z,52.15
2019-01-25T01:53:30.249Z,50.63
2019-01-25T01:54:16.119Z,52.17
2019-01-25T01:55:02.037Z,51.48
2019-01-25T01:55:48.382Z,52.35
2019-01-25T01:56:34.260Z,53.85
2019-01-25T01:57:21.045Z,53.23
2019-01-25T01:58:07.074Z,52.90
2019-01-25T01:58:52.985Z,53.42
2019-01-25T01:59:38.932Z,55.45
2019-01-25T02:00:25.914Z,51.90
2019-01-25T02:01:11.838Z,52.25
2019-01-25T02:01:57.563Z,52.88
2019-01-25T02:02:43.684Z,53.28
2019-01-25T02:03:29.915Z,53.20
2019-01-25T02:04:15.878Z,53.00
2019-01-25T02:05:02.145Z,53.42
2019-01-25T02:05:48.609Z,53.35
2019-01-25T02:06:34.650Z,51.08
2019-01-25T02:07:20.665Z,51.30
2019-01-25T02:08:09.176Z,52.00
2019-01-25T02:08:55.743Z,52.17
2019-01-25T02:09:41.792Z,51.68
2019-01-25T02:10:29.683Z,51.88
2019-01-25T02:11:16.350Z,52.98
2019-01-25T02:12:02.539Z,52.40
2019-01-25T02:12:48.597Z,51.75
2019-01-25T02:13:34.755Z,51.23
2019-01-25T02:14:22.341Z,51.90
2019-01-25T02:15:10.720Z,50.28
2019-01-25T02:15:57.220Z,50.43
2019-01-25T02:16:43.335Z,51.05
2019-01-25T02:17:29.524Z,51.55
2019-01-25T02:18:15.762Z,51.33
2019-01-25T02:19:03.291Z,51.37
2019-01-25T02:19:49.280Z,50.08
2019-01-25T02:20:36.359Z,50.83
2019-01-25T02:21:22.696Z,50.38
2019-01-25T02:22:08.573Z,50.78
2019-01-25T02:22:54.826Z,49.13
2019-01-25T02:23:41.081Z,50.08
2019-01-25T02:24:27.054Z,51.40
2019-01-25T02:25:13.987Z,48.38
2019-01-25T02:25:59.869Z,49.53
2019-01-25T02:26:45.783Z,50.83
2019-01-25T02:27:31.665Z,51.18
2019-01-25T02:28:17.595Z,48.50
2019-01-25T02:29:07.717Z,52.93
2019-01-25T02:29:53.745Z,51.05
2019-01-25T02:30:39.647Z,51.20
2019-01-25T02:31:25.663Z,51.53
2019-01-25T02:32:11.931Z,52.23
2019-01-25T02:32:57.856Z,50.40
2019-01-25T02:33:44.268Z,50.83
2019-01-25T02:34:30.208Z,51.48
2019-01-25T02:35:16.407Z,49.67
2019-01-25T02:36:03.995Z,49.33
2019-01-25T02:36:51.461Z,50.43
2019-01-25T02:37:37.778Z,50.88
2019-01-25T02:38:23.715Z,48.90
2019-01-25T02:39:09.787Z,50.43
2019-01-25T02:39:55.758Z,50.43
2019-01-25T02:40:41.927Z,51.23
2019-01-25T02:41:28.517Z,50.92
2019-01-25T02:42:14.920Z,50.08
2019-01-25T02:43:01.471Z,49.60
2019-01-25T02:43:47.614Z,50.15
2019-01-25T02:44:34.134Z,50.52
2019-01-25T02:45:20.411Z,50.48
2019-01-25T02:46:06.514Z,49.88
2019-01-25T02:46:52.423Z,50.43
2019-01-25T02:47:38.436Z,50.33
2019-01-25T02:48:24.791Z,50.67
2019-01-25T02:49:11.384Z,52.23
2019-01-25T02:49:58.852Z,49.45
2019-01-25T02:50:45.205Z,50.70
2019-01-25T02:51:31.237Z,49.20
2019-01-25T02:52:17.590Z,50.35
2019-01-25T02:53:04.654Z,51.28
2019-01-25T02:53:51.000Z,50.55
2019-01-25T02:54:36.935Z,53.52
2019-01-25T02:55:23.188Z,51.13
2019-01-25T02:56:09.495Z,50.60
2019-01-25T02:56:55.322Z,52.53
2019-01-25T02:57:41.243Z,50.17
2019-01-25T02:58:27.154Z,51.75
2019-01-25T02:59:13.100Z,51.70
2019-01-25T02:59:59.107Z,51.13
2019-01-25T03:00:45.284Z,51.25
2019-01-25T03:01:31.700Z,52.60
2019-01-25T03:02:18.990Z,50.92
2019-01-25T03:03:05.530Z,51.15
2019-01-25T03:03:51.978Z,52.25
2019-01-25T03:04:38.611Z,51.58
2019-01-25T03:05:25.347Z,52.03
2019-01-25T03:06:11.459Z,52.00
2019-01-25T03:06:58.878Z,52.70
2019-01-25T03:07:45.278Z,52.70
2019-01-25T03:08:31.335Z,52.80
2019-01-25T03:09:17.897Z,53.23
2019-01-25T03:10:06.936Z,52.15
2019-01-25T03:10:54.686Z,50.78
2019-01-25T03:11:40.934Z,53.20
2019-01-25T03:12:27.752Z,51.23
2019-01-25T03:13:14.371Z,51.95
2019-01-25T03:14:00.427Z,52.53
2019-01-25T03:14:46.615Z,53.40
2019-01-25T03:15:32.698Z,52.33
2019-01-25T03:16:18.631Z,52.60
2019-01-25T03:17:04.650Z,51.60
2019-01-25T03:17:50.930Z,55.40
2019-01-25T03:18:36.816Z,51.20
2019-01-25T03:19:22.785Z,50.83
2019-01-25T03:20:10.294Z,52.38
2019-01-25T03:20:56.622Z,54.75
2019-01-25T03:21:42.517Z,53.60
2019-01-25T03:22:29.260Z,54.93
2019-01-25T03:23:15.272Z,55.43
2019-01-25T03:24:01.191Z,54.93
2019-01-25T03:24:47.628Z,53.63
2019-01-25T03:25:33.560Z,53.70
2019-01-25T03:26:20.046Z,54.40
2019-01-25T03:27:06.480Z,53.42
2019-01-25T03:27:52.578Z,55.03
2019-01-25T03:28:38.506Z,54.73
2019-01-25T03:29:24.455Z,53.52
2019-01-25T03:30:12.363Z,55.35
2019-01-25T03:30:59.564Z,54.05
2019-01-25T03:31:45.801Z,53.38
2019-01-25T03:32:32.036Z,54.25
2019-01-25T03:33:18.440Z,54.60
2019-01-25T03:34:05.003Z,53.20
2019-01-25T03:34:51.286Z,52.00
2019-01-25T03:35:37.687Z,55.48
2019-01-25T03:36:23.766Z,55.63
2019-01-25T03:37:09.714Z,56.18
2019-01-25T03:37:55.718Z,54.53
2019-01-25T03:38:42.736Z,55.85
2019-01-25T03:39:29.075Z,55.95
2019-01-25T03:40:17.553Z,55.00
2019-01-25T03:41:04.014Z,55.60
2019-01-25T03:41:50.959Z,54.67
2019-01-25T03:42:37.207Z,56.05
2019-01-25T03:43:23.252Z,53.50
2019-01-25T03:44:09.517Z,57.05
2019-01-25T03:44:55.854Z,56.92
2019-01-25T03:45:41.884Z,57.85
2019-01-25T03:46:29.847Z,57.80
2019-01-25T03:47:16.196Z,57.88
2019-01-25T03:48:02.475Z,55.88
2019-01-25T03:48:48.722Z,57.65
2019-01-25T03:49:34.813Z,56.73
2019-01-25T03:50:24.581Z,59.53
2019-01-25T03:51:10.684Z,58.95
2019-01-25T03:51:56.875Z,59.60
2019-01-25T03:52:46.298Z,59.33
2019-01-25T03:53:32.260Z,58.63
2019-01-25T03:54:18.552Z,58.73
2019-01-25T03:55:05.399Z,57.05
2019-01-25T03:55:52.506Z,58.52
2019-01-25T03:56:38.758Z,60.10
2019-01-25T03:57:25.135Z,58.95
2019-01-25T03:58:11.643Z,57.20
2019-01-25T03:58:58.053Z,56.98
2019-01-25T03:59:45.450Z,59.85
2019-01-25T04:00:31.688Z,58.08
2019-01-25T04:01:17.941Z,58.65
2019-01-25T04:02:04.384Z,59.35
2019-01-25T04:02:50.498Z,57.30
2019-01-25T04:03:36.927Z,56.35
2019-01-25T04:04:23.262Z,59.75
2019-01-25T04:05:10.315Z,57.90
2019-01-25T04:05:56.729Z,60.65
2019-01-25T04:06:43.195Z,56.83
2019-01-25T04:07:29.489Z,58.58
2019-01-25T04:08:15.478Z,58.02
2019-01-25T04:09:01.455Z,57.45
2019-01-25T04:09:47.462Z,57.00
2019-01-25T04:10:34.696Z,60.45
2019-01-25T04:11:21.027Z,58.95
2019-01-25T04:12:07.035Z,57.90
2019-01-25T04:12:54.407Z,57.75
2019-01-25T04:13:40.705Z,59.95
2019-01-25T04:14:26.778Z,56.83
2019-01-25T04:15:16.343Z,57.43
2019-01-25T04:16:02.390Z,58.38
2019-01-25T04:16:48.356Z,57.00
2019-01-25T04:17:34.454Z,57.73
2019-01-25T04:18:20.603Z,57.95
2019-01-25T04:19:06.894Z,61.05
2019-01-25T04:19:53.451Z,58.02
2019-01-25T04:20:40.075Z,58.00
2019-01-25T04:21:26.397Z,58.02
2019-01-25T04:22:12.679Z,58.40
2019-01-25T04:22:58.822Z,59.03
2019-01-25T04:23:45.177Z,57.88
2019-01-25T04:24:30.980Z,56.60
2019-01-25T04:25:18.767Z,58.08
2019-01-25T04:26:04.863Z,57.40
2019-01-25T04:26:51.070Z,58.92
2019-01-25T04:27:37.391Z,59.08
2019-01-25T04:28:23.303Z,56.00
2019-01-25T04:29:09.708Z,56.28
2019-01-25T04:29:55.708Z,56.33
2019-01-25T04:30:42.029Z,58.50
2019-01-25T04:31:28.339Z,54.83
2019-01-25T04:32:14.217Z,55.45
2019-01-25T04:33:00.123Z,58.02
2019-01-25T04:33:46.569Z,57.33
2019-01-25T04:34:32.835Z,55.55
2019-01-25T04:35:19.295Z,54.85
2019-01-25T04:36:05.660Z,59.88
2019-01-25T04:36:52.009Z,58.45
2019-01-25T04:37:39.272Z,53.73
2019-01-25T04:38:25.698Z,52.50
2019-01-25T04:39:12.147Z,54.00
2019-01-25T04:39:58.121Z,52.60
2019-01-25T04:40:44.199Z,53.98
2019-01-25T04:41:30.416Z,53.38
2019-01-25T04:42:16.474Z,54.42
2019-01-25T04:43:02.546Z,53.02
2019-01-25T04:43:48.580Z,52.48
2019-01-25T04:44:34.543Z,52.62
2019-01-25T04:45:21.625Z,52.98
2019-01-25T04:46:07.695Z,52.75
2019-01-25T04:46:54.086Z,51.73
2019-01-25T04:47:40.549Z,51.58
2019-01-25T04:48:26.866Z,52.30
2019-01-25T04:49:13.063Z,56.83
2019-01-25T04:49:59.052Z,54.05
2019-01-25T04:50:45.067Z,53.58
2019-01-25T04:51:31.582Z,53.38
2019-01-25T04:52:17.671Z,53.75
2019-01-25T04:53:04.064Z,53.20
2019-01-25T04:53:50.419Z,53.98
2019-01-25T04:54:36.778Z,54.27
2019-01-25T04:55:25.162Z,52.43
2019-01-25T04:56:11.407Z,52.15
2019-01-25T04:56:57.885Z,54.03
2019-01-25T04:57:44.304Z,53.33
2019-01-25T04:58:30.464Z,52.50
2019-01-25T04:59:16.773Z,50.08
2019-01-25T05:00:06.624Z,52.98
2019-01-25T05:00:53.061Z,53.02
2019-01-25T05:01:39.314Z,52.90
2019-01-25T05:02:25.916Z,52.50
2019-01-25T05:03:12.577Z,53.52
2019-01-25T05:03:59.755Z,54.33
2019-01-25T05:04:46.092Z,51.75
2019-01-25T05:05:32.118Z,50.92
2019-01-25T05:06:18.317Z,51.73
2019-01-25T05:07:05.096Z,48.10
2019-01-25T05:08:07.740Z,49.08
2019-01-25T05:08:54.130Z,48.17
2019-01-25T05:09:40.018Z,47.30
2019-01-25T05:10:26.013Z,49.75
2019-01-25T05:11:19.948Z,48.78
2019-01-25T05:12:03.438Z,50.15
2019-01-25T05:12:53.082Z,48.17
2019-01-25T05:13:39.252Z,46.33
2019-01-25T05:14:28.451Z,46.55
2019-01-25T05:15:14.736Z,44.18
2019-01-25T05:16:02.054Z,46.68
2019-01-25T05:16:48.374Z,45.85
2019-01-25T05:17:34.538Z,46.92
2019-01-25T05:18:20.809Z,45.63
2019-01-25T05:19:07.305Z,47.27
2019-01-25T05:19:53.263Z,45.67
2019-01-25T05:20:39.362Z,43.87
2019-01-25T05:21:25.700Z,43.78
2019-01-25T05:22:12.104Z,43.38
2019-01-25T05:22:59.451Z,42.60
2019-01-25T05:23:45.844Z,42.33
2019-01-25T05:24:32.939Z,42.23
2019-01-25T05:25:22.027Z,42.78
2019-01-25T05:26:08.207Z,44.18
2019-01-25T05:26:57.421Z,43.15
2019-01-25T05:27:43.723Z,43.52
2019-01-25T05:28:30.068Z,43.38
2019-01-25T05:29:21.811Z,42.00
2019-01-25T05:30:09.980Z,41.08
2019-01-25T05:31:04.836Z,40.15
2019-01-25T05:31:51.124Z,40.65
2019-01-25T05:32:36.992Z,41.42
2019-01-25T05:33:23.427Z,42.38
2019-01-25T05:34:09.883Z,40.48
2019-01-25T05:34:56.111Z,40.00
2019-01-25T05:35:42.082Z,40.20
2019-01-25T05:36:28.266Z,41.08
2019-01-25T05:37:14.923Z,40.48
2019-01-25T05:38:01.686Z,41.00
2019-01-25T05:38:48.237Z,40.98
2019-01-25T05:39:34.801Z,39.60
2019-01-25T05:40:23.057Z,42.58
2019-01-25T05:41:09.447Z,41.45
2019-01-25T05:41:55.595Z,38.60
2019-01-25T05:42:41.859Z,39.35
2019-01-25T05:43:36.585Z,42.53
2019-01-25T05:44:22.721Z,39.75
2019-01-25T05:45:11.261Z,40.92
2019-01-25T05:45:57.768Z,40.43
2019-01-25T05:46:43.742Z,40.23
2019-01-25T05:47:30.147Z,40.45
2019-01-25T05:48:16.014Z,41.45
2019-01-25T05:49:01.959Z,43.25
2019-01-25T05:49:47.931Z,41.88
2019-01-25T05:50:34.302Z,41.83
2019-01-25T05:51:21.465Z,41.08
2019-01-25T05:52:15.143Z,41.00
2019-01-25T05:53:01.498Z,41.50
2019-01-25T05:53:53.333Z,40.50
2019-01-25T05:54:40.748Z,41.68
2019-01-25T05:55:27.358Z,41.18
2019-01-25T05:56:14.099Z,40.75
2019-01-25T05:57:00.521Z,41.30
2019-01-25T05:57:46.680Z,41.80
2019-01-25T05:58:32.648Z,40.67
2019-01-25T05:59:22.819Z,44.03
2019-01-25T06:00:10.975Z,41.55
2019-01-25T06:00:57.179Z,43.10
2019-01-25T06:01:44.871Z,40.10
2019-01-25T06:02:31.252Z,42.90
2019-01-25T06:03:18.366Z,41.00
2019-01-25T06:04:04.775Z,41.37
2019-01-25T06:04:50.825Z,41.33
2019-01-25T06:05:37.189Z,39.58
2019-01-25T06:06:23.909Z,42.23
2019-01-25T06:07:10.557Z,43.05
2019-01-25T06:07:56.670Z,41.53
2019-01-25T06:08:44.137Z,41.35
2019-01-25T06:09:30.894Z,42.08
2019-01-25T06:10:18.721Z,44.05
2019-01-25T06:11:09.158Z,43.70
2019-01-25T06:11:55.415Z,43.15
2019-01-25T06:12:41.335Z,44.63
2019-01-25T06:13:28.016Z,44.55
2019-01-25T06:14:14.072Z,44.80
2019-01-25T06:15:00.359Z,47.27
2019-01-25T06:15:46.544Z,47.85
2019-01-25T06:16:34.154Z,45.88
2019-01-25T06:17:20.801Z,47.60
2019-01-25T06:18:09.363Z,45.75
2019-01-25T06:18:55.535Z,48.85
2019-01-25T06:19:41.610Z,48.40
2019-01-25T06:20:28.220Z,46.70
2019-01-25T06:21:15.884Z,48.68
2019-01-25T06:22:02.299Z,48.50
2019-01-25T06:22:53.931Z,44.93
2019-01-25T06:23:40.233Z,48.75
2019-01-25T06:24:26.309Z,47.70
2019-01-25T06:25:12.500Z,48.20
2019-01-25T06:26:00.291Z,50.35
2019-01-25T06:26:46.819Z,49.40
2019-01-25T06:27:36.330Z,50.83
2019-01-25T06:28:22.383Z,49.18
2019-01-25T06:29:08.651Z,49.70
2019-01-25T06:29:55.158Z,50.35
2019-01-25T06:30:41.783Z,51.05
2019-01-25T06:31:28.079Z,50.55
2019-01-25T06:32:15.633Z,50.12
2019-01-25T06:33:01.913Z,49.35
2019-01-25T06:33:49.482Z,48.95
2019-01-25T06:34:35.810Z,48.33
2019-01-25T06:35:21.743Z,51.05
2019-01-25T06:36:08.368Z,50.10
2019-01-25T06:36:54.743Z,49.50
2019-01-25T06:37:41.632Z,50.65
2019-01-25T06:38:28.030Z,52.25
2019-01-25T06:39:14.186Z,51.05
2019-01-25T06:40:00.575Z,53.65
2019-01-25T06:40:46.678Z,52.83
2019-01-25T06:41:32.771Z,51.25
2019-01-25T06:42:19.419Z,51.63
2019-01-25T06:43:07.154Z,54.25
2019-01-25T06:43:53.424Z,54.25
2019-01-25T06:44:40.147Z,53.10
2019-01-25T06:45:26.572Z,54.27
2019-01-25T06:46:13.233Z,56.53
2019-01-25T06:46:59.898Z,56.68
2019-01-25T06:47:46.524Z,54.98
2019-01-25T06:48:34.202Z,57.62
2019-01-25T06:49:20.721Z,55.90
2019-01-25T06:50:07.567Z,55.52
2019-01-25T06:50:53.567Z,61.08
2019-01-25T06:51:40.102Z,61.10
2019-01-25T06:52:26.298Z,62.20
2019-01-25T06:53:13.841Z,65.65
2019-01-25T06:54:00.431Z,64.55
2019-01-25T06:54:46.592Z,64.35
2019-01-25T06:55:32.615Z,59.85
2019-01-25T06:56:18.946Z,58.68
2019-01-25T06:57:15.191Z,58.05
2019-01-25T06:58:20.580Z,57.10
2019-01-25T06:59:11.854Z,54.13
2019-01-25T06:59:59.052Z,58.75
2019-01-25T07:00:55.436Z,65.00
2019-01-25T07:02:07.443Z,61.63
2019-01-25T07:02:54.402Z,62.93
2019-01-25T07:03:40.851Z,65.05
2019-01-25T07:04:28.470Z,67.27
2019-01-25T07:05:14.971Z,68.57
2019-01-25T07:06:01.329Z,67.55
2019-01-25T07:06:48.022Z,67.55
2019-01-25T07:07:35.982Z,69.22
2019-01-25T07:08:23.645Z,69.35
2019-01-25T07:09:11.907Z,68.80
2019-01-25T07:09:58.379Z,71.05
2019-01-25T07:10:44.608Z,68.05
2019-01-25T07:11:30.863Z,66.62
2019-01-25T07:12:17.664Z,64.12
2019-01-25T07:13:04.247Z,64.77
2019-01-25T07:13:50.780Z,66.05
2019-01-25T07:14:37.276Z,66.00
2019-01-25T07:15:23.839Z,63.28
2019-01-25T07:16:10.462Z,62.20
2019-01-25T07:16:57.211Z,62.80
2019-01-25T07:17:43.664Z,59.63
2019-01-25T07:18:30.107Z,62.35
2019-01-25T07:19:16.448Z,59.77
2019-01-25T07:20:04.752Z,60.15
2019-01-25T07:20:50.684Z,61.48
2019-01-25T07:21:36.912Z,62.43
2019-01-25T07:22:23.287Z,61.65
2019-01-25T07:23:10.859Z,62.15
2019-01-25T07:23:57.083Z,63.80
2019-01-25T07:24:43.475Z,65.97
2019-01-25T07:25:29.795Z,65.12
2019-01-25T07:26:16.206Z,65.12
2019-01-25T07:27:02.577Z,64.35
2019-01-25T07:27:48.995Z,64.70
2019-01-25T07:28:35.531Z,65.10
2019-01-25T07:29:21.788Z,65.32
2019-01-25T07:30:09.595Z,64.20
2019-01-25T07:30:56.164Z,66.45
2019-01-25T07:31:42.672Z,63.80
2019-01-25T07:32:28.923Z,66.65
2019-01-25T07:33:15.619Z,65.32
2019-01-25T07:34:02.188Z,64.20
2019-01-25T07:34:48.620Z,63.60
2019-01-25T07:35:35.001Z,66.28
2019-01-25T07:36:21.392Z,68.05
2019-01-25T07:37:07.705Z,66.72
2019-01-25T07:37:54.045Z,65.60
2019-01-25T07:38:40.133Z,65.70
2019-01-25T07:39:28.798Z,65.72
2019-01-25T07:40:15.387Z,66.87
2019-01-25T07:41:01.621Z,65.60
2019-01-25T07:41:48.497Z,65.30
2019-01-25T07:42:34.966Z,64.03
2019-01-25T07:43:21.339Z,63.02
2019-01-25T07:44:07.932Z,63.83
2019-01-25T07:44:54.197Z,62.48
2019-01-25T07:45:40.616Z,66.25
2019-01-25T07:46:27.122Z,62.13
2019-01-25T07:47:13.707Z,65.03
2019-01-25T07:48:00.135Z,65.40
2019-01-25T07:48:46.751Z,65.20
2019-01-25T07:49:33.291Z,60.83
2019-01-25T07:50:21.843Z,60.52
2019-01-25T07:51:08.279Z,63.60
2019-01-25T07:51:54.840Z,64.70
2019-01-25T07:52:41.748Z,62.53
2019-01-25T07:53:28.556Z,62.73
2019-01-25T07:54:14.879Z,62.60
2019-01-25T07:55:01.339Z,62.30
2019-01-25T07:55:47.980Z,62.10
2019-01-25T07:56:35.811Z,60.03
2019-01-25T07:57:22.201Z,61.13
2019-01-25T07:58:08.694Z,60.23
2019-01-25T07:58:55.443Z,63.20
2019-01-25T07:59:41.705Z,58.98
2019-01-25T08:00:28.443Z,61.85
2019-01-25T08:01:14.928Z,62.75
2019-01-25T08:02:01.589Z,62.65
2019-01-25T08:02:48.389Z,63.50
2019-01-25T08:03:35.078Z,62.05
2019-01-25T08:04:21.540Z,60.88
2019-01-25T08:05:10.557Z,63.68
2019-01-25T08:05:57.388Z,63.63
2019-01-25T08:06:43.607Z,61.40
2019-01-25T08:07:30.276Z,63.38
2019-01-25T08:08:16.735Z,62.05
2019-01-25T08:09:06.483Z,64.97
2019-01-25T08:09:52.635Z,59.73
2019-01-25T08:10:38.781Z,61.80
2019-01-25T08:11:25.317Z,62.33
2019-01-25T08:12:11.865Z,62.05
2019-01-25T08:12:58.464Z,63.20
2019-01-25T08:13:45.132Z,65.05
2019-01-25T08:14:31.727Z,64.22
2019-01-25T08:15:18.583Z,67.27
2019-01-25T08:16:04.751Z,64.03
2019-01-25T08:16:51.471Z,63.10
2019-01-25T08:17:37.784Z,64.12
2019-01-25T08:18:23.851Z,63.15
2019-01-25T08:19:11.002Z,64.60
2019-01-25T08:19:59.201Z,64.37
2019-01-25T08:20:45.435Z,67.35
2019-01-25T08:21:33.147Z,63.33
2019-01-25T08:22:19.850Z,63.85
2019-01-25T08:23:07.389Z,61.88
2019-01-25T08:23:53.535Z,65.08
2019-01-25T08:24:40.125Z,63.20
2019-01-25T08:25:26.715Z,61.35
2019-01-25T08:26:12.809Z,62.88
2019-01-25T08:26:58.822Z,61.77
2019-01-25T08:27:44.747Z,59.70
2019-01-25T08:28:32.319Z,61.23
2019-01-25T08:29:18.592Z,63.00
2019-01-25T08:30:07.937Z,60.33
2019-01-25T08:30:54.420Z,61.50
2019-01-25T08:31:41.072Z,62.95
2019-01-25T08:32:27.261Z,60.88
2019-01-25T08:33:13.785Z,63.45
2019-01-25T08:34:00.139Z,63.30
2019-01-25T08:34:47.685Z,62.27
2019-01-25T08:35:34.144Z,63.10
2019-01-25T08:36:20.552Z,63.65
2019-01-25T08:37:06.481Z,61.92
2019-01-25T08:37:53.899Z,64.15
2019-01-25T08:38:40.480Z,60.20
2019-01-25T08:39:26.628Z,64.03
2019-01-25T08:40:12.579Z,60.08
2019-01-25T08:40:58.997Z,65.70
2019-01-25T08:41:45.327Z,62.70
2019-01-25T08:42:31.194Z,60.78
2019-01-25T08:43:17.159Z,61.25
2019-01-25T08:44:03.535Z,62.98
2019-01-25T08:44:50.029Z,62.45
2019-01-25T08:45:36.439Z,63.63
2019-01-25T08:46:22.323Z,63.50
2019-01-25T08:47:08.257Z,64.47
2019-01-25T08:47:54.812Z,62.45
2019-01-25T08:48:41.320Z,64.03
2019-01-25T08:49:27.520Z,66.45
2019-01-25T08:50:16.372Z,63.73
2019-01-25T08:51:02.533Z,60.70
2019-01-25T08:51:48.568Z,61.80
2019-01-25T08:52:34.899Z,61.40
2019-01-25T08:53:21.442Z,61.37
2019-01-25T08:54:07.807Z,62.13
2019-01-25T08:54:53.900Z,61.10
2019-01-25T08:55:39.969Z,61.42
2019-01-25T08:56:27.319Z,62.00
2019-01-25T08:57:13.808Z,65.52
2019-01-25T08:58:00.197Z,64.03
2019-01-25T08:58:46.838Z,61.73
2019-01-25T08:59:33.520Z,65.10
2019-01-25T09:00:22.166Z,61.02
2019-01-25T09:01:09.682Z,60.55
2019-01-25T09:01:57.430Z,61.77
2019-01-25T09:02:43.991Z,59.38
2019-01-25T09:03:30.116Z,61.33
2019-01-25T09:04:17.695Z,61.40
2019-01-25T09:05:06.475Z,61.37
2019-01-25T09:05:52.854Z,59.77
2019-01-25T09:06:38.925Z,62.95
2019-01-25T09:07:26.653Z,62.95
2019-01-25T09:08:13.004Z,61.18
2019-01-25T09:08:58.875Z,63.17
2019-01-25T09:09:44.922Z,62.98
2019-01-25T09:10:32.547Z,61.58
2019-01-25T09:11:18.945Z,63.55
2019-01-25T09:12:04.986Z,60.73
2019-01-25T09:12:55.573Z,58.23
2019-01-25T09:13:41.740Z,63.40
2019-01-25T09:14:28.005Z,61.85
2019-01-25T09:15:16.839Z,61.53
2019-01-25T09:16:03.218Z,59.45
2019-01-25T09:16:49.321Z,61.65
2019-01-25T09:17:36.190Z,62.67
2019-01-25T09:18:22.431Z,62.95
2019-01-25T09:19:08.750Z,62.53
2019-01-25T09:19:55.266Z,62.75
2019-01-25T09:20:41.788Z,62.20
2019-01-25T09:21:27.529Z,65.03
2019-01-25T09:22:13.268Z,62.25
2019-01-25T09:22:59.491Z,64.45
2019-01-25T09:23:45.566Z,61.18
2019-01-25T09:24:31.590Z,62.50
2019-01-25T09:25:18.149Z,64.42
2019-01-25T09:26:04.320Z,62.83
2019-01-25T09:26:50.502Z,60.95
2019-01-25T09:27:36.450Z,62.13
2019-01-25T09:28:22.432Z,62.00
2019-01-25T09:29:08.587Z,60.25
2019-01-25T09:29:55.021Z,61.35
2019-01-25T09:30:41.227Z,60.15
2019-01-25T09:31:27.723Z,60.78
2019-01-25T09:32:14.259Z,60.78
2019-01-25T09:33:00.602Z,61.42
2019-01-25T09:33:47.258Z,60.38
2019-01-25T09:34:34.694Z,60.78
2019-01-25T09:35:22.818Z,61.05
2019-01-25T09:36:09.355Z,60.83
2019-01-25T09:36:56.159Z,62.08
2019-01-25T09:37:42.412Z,62.58
2019-01-25T09:38:29.202Z,61.30
2019-01-25T09:39:15.605Z,59.27
2019-01-25T09:40:02.403Z,61.98
2019-01-25T09:40:48.679Z,58.70
2019-01-25T09:41:35.042Z,61.60
2019-01-25T09:42:21.082Z,65.83
2019-01-25T09:43:07.327Z,62.27
2019-01-25T09:43:53.520Z,62.48
2019-01-25T09:44:39.390Z,63.02
2019-01-25T09:45:25.429Z,63.58
2019-01-25T09:46:11.885Z,63.52
2019-01-25T09:46:58.392Z,63.87
2019-01-25T09:47:44.497Z,63.13
2019-01-25T09:48:30.956Z,61.80
2019-01-25T09:49:17.423Z,63.58
2019-01-25T09:50:05.631Z,61.88
2019-01-25T09:50:52.918Z,63.35
2019-01-25T09:51:39.714Z,62.65
2019-01-25T09:52:25.865Z,60.70
2019-01-25T09:53:12.209Z,64.65
2019-01-25T09:53:58.419Z,64.62
2019-01-25T09:54:44.657Z,63.17
2019-01-25T09:55:31.837Z,64.00
2019-01-25T09:56:19.135Z,65.75
2019-01-25T09:57:05.886Z,60.80
2019-01-25T09:57:53.250Z,63.33
2019-01-25T09:58:42.892Z,62.67
2019-01-25T09:59:29.037Z,64.17
2019-01-25T10:00:21.603Z,64.25
2019-01-25T10:01:09.427Z,61.23
2019-01-25T10:01:55.476Z,60.60
2019-01-25T10:02:41.784Z,62.27
2019-01-25T10:03:28.429Z,64.67
2019-01-25T10:04:14.599Z,62.90
2019-01-25T10:05:02.081Z,63.90